Time;durP1;ratioP1;P1;durP2;ratioP2;P2;SDS_P1;SDS_P2;PMS_P1;PMS_P2;Temp;Humidity;BMP_temperature;BMP_pressure;BME280_temperature;BME280_humidity;BME280_pressure;Samples;Min_cycle;Max_cycle;Signal;HPM_P1;HPM_P2
2024/01/12 00:01:11;;;;;;;5.38;1.60;;;;;;;1.68;62.58;101266.66;5069760;28;20047;-66
2024/01/12 00:03:37;;;;;;;5.00;1.75;;;;;;;1.67;60.80;101265.84;5069017;28;20035;-66
2024/01/12 00:06:03;;;;;;;5.60;1.52;;;;;;;1.63;62.24;101260.91;5069389;28;20020;-66
2024/01/12 00:08:28;;;;;;;4.47;1.75;;;;;;;1.60;62.33;101261.03;5076337;28;20036;-66
2024/01/12 00:10:54;;;;;;;7.38;2.70;;;;;;;1.56;62.37;101265.47;5065072;28;20452;-67
2024/01/12 00:13:20;;;;;;;5.63;1.73;;;;;;;1.45;64.19;101256.56;5067049;28;20128;-66
2024/01/12 00:15:45;;;;;;;4.63;1.65;;;;;;;1.43;63.37;101260.94;5071526;28;20029;-66
2024/01/12 00:18:11;;;;;;;3.97;1.23;;;;;;;1.46;62.11;101265.94;5070841;28;20032;-67
2024/01/12 00:20:42;;;;;;;4.63;1.70;;;;;;;1.47;62.02;101265.88;5067804;28;20517;-66
2024/01/12 00:23:11;;;;;;;7.72;1.63;;;;;;;1.43;63.55;101259.19;5067670;28;20040;-67
2024/01/12 00:25:36;;;;;;;4.97;2.05;;;;;;;1.43;62.29;101261.75;5070043;28;20477;-66
2024/01/12 00:28:02;;;;;;;4.53;1.42;;;;;;;1.35;63.12;101247.63;5072326;28;20107;-66
2024/01/12 00:30:27;;;;;;;5.18;1.67;;;;;;;1.22;64.83;101252.44;5071553;28;20067;-66
2024/01/12 00:32:53;;;;;;;8.82;2.25;;;;;;;1.22;63.46;101247.31;5070083;28;20047;-66
2024/01/12 00:35:18;;;;;;;4.50;1.77;;;;;;;1.17;66.11;101251.81;5071229;28;20087;-66
2024/01/12 00:37:44;;;;;;;5.38;1.85;;;;;;;1.23;64.18;101254.13;5070179;28;20366;-65
2024/01/12 00:40:10;;;;;;;5.75;1.70;;;;;;;1.25;62.89;101257.44;5071699;28;20498;-66
2024/01/12 00:42:35;;;;;;;4.88;1.90;;;;;;;1.16;64.19;101262.97;5071087;28;20041;-65
2024/01/12 00:45:00;;;;;;;6.78;1.63;;;;;;;1.18;63.55;101262.00;5073512;28;20039;-66
2024/01/12 00:47:26;;;;;;;4.13;1.90;;;;;;;1.08;66.16;101257.31;5069178;28;20034;-66
2024/01/12 00:49:51;;;;;;;6.07;2.42;;;;;;;1.00;67.98;101263.59;5071733;28;20040;-65
2024/01/12 00:52:17;;;;;;;7.05;2.08;;;;;;;1.02;65.12;101267.84;5073094;28;20032;-65
2024/01/12 00:54:42;;;;;;;8.55;2.70;;;;;;;1.07;65.21;101269.31;5071697;28;20024;-66
2024/01/12 00:57:08;;;;;;;7.40;2.00;;;;;;;1.20;63.92;101269.66;5073389;28;20028;-66
2024/01/12 00:59:33;;;;;;;5.13;1.80;;;;;;;1.23;64.21;101272.91;5069927;28;20132;-65
2024/01/12 01:01:59;;;;;;;5.38;1.90;;;;;;;1.25;64.22;101275.41;5069809;28;20056;-66
2024/01/12 01:04:25;;;;;;;6.80;1.92;;;;;;;1.29;64.40;101276.97;5068531;28;20115;-65
2024/01/12 01:06:54;;;;;;;6.90;2.10;;;;;;;1.33;63.81;101286.19;5072663;28;20020;-66
2024/01/12 01:09:19;;;;;;;5.55;1.80;;;;;;;1.31;62.99;101286.25;5072899;28;20027;-66
2024/01/12 01:11:45;;;;;;;4.25;1.55;;;;;;;1.32;62.83;101281.97;5069873;28;20036;-66
2024/01/12 01:14:10;;;;;;;6.35;1.30;;;;;;;1.37;63.29;101286.91;5069485;28;20060;-65
2024/01/12 01:16:36;;;;;;;4.90;2.03;;;;;;;1.36;63.83;101286.06;5069152;28;20037;-65
2024/01/12 01:19:01;;;;;;;5.47;1.80;;;;;;;1.37;62.93;101285.16;5071574;28;20090;-66
2024/01/12 01:21:27;;;;;;;2.97;1.40;;;;;;;1.39;63.24;101279.97;5071955;28;20132;-65
2024/01/12 01:23:54;;;;;;;4.22;1.23;;;;;;;1.34;63.09;101272.47;5072381;28;20370;-66
2024/01/12 01:26:19;;;;;;;4.97;1.30;;;;;;;1.32;63.15;101279.41;5071908;28;20389;-65
2024/01/12 01:28:45;;;;;;;7.05;2.00;;;;;;;1.25;63.93;101283.94;5068625;28;20122;-65
2024/01/12 01:31:10;;;;;;;6.97;1.83;;;;;;;1.22;64.52;101283.25;5069824;28;20040;-66
2024/01/12 01:33:36;;;;;;;6.78;2.10;;;;;;;1.24;63.65;101282.28;5068094;28;20067;-66
2024/01/12 01:36:02;;;;;;;4.60;1.63;;;;;;;1.24;63.60;101282.28;5069474;28;20454;-66
2024/01/12 01:38:28;;;;;;;6.32;1.98;;;;;;;1.22;63.53;101285.81;5066778;28;20114;-65
2024/01/12 01:40:53;;;;;;;5.20;1.92;;;;;;;1.19;64.05;101280.81;5072232;28;20210;-66
2024/01/12 01:43:19;;;;;;;8.27;2.28;;;;;;;1.12;64.23;101277.66;5068885;28;20048;-65
2024/01/12 01:45:44;;;;;;;5.93;1.77;;;;;;;1.07;64.71;101283.88;5073928;28;20495;-66
2024/01/12 01:48:10;;;;;;;6.50;1.88;;;;;;;1.02;65.58;101285.81;5073555;28;20056;-66
2024/01/12 01:50:36;;;;;;;6.25;1.55;;;;;;;0.97;67.21;101289.41;5069124;28;20033;-66
2024/01/12 01:53:03;;;;;;;5.25;1.38;;;;;;;0.68;66.01;101292.31;5071744;28;20028;-65
2024/01/12 01:55:30;;;;;;;6.72;1.45;;;;;;;0.76;65.99;101289.47;5066733;28;20040;-66
2024/01/12 01:57:57;;;;;;;4.80;1.85;;;;;;;0.83;65.51;101283.19;5072670;28;20039;-66
2024/01/12 02:00:23;;;;;;;8.27;2.00;;;;;;;0.89;65.27;101281.22;5070279;28;20037;-66
2024/01/12 02:02:48;;;;;;;3.78;1.90;;;;;;;1.04;64.81;101277.16;5068240;28;20028;-66
2024/01/12 02:05:14;;;;;;;3.65;1.40;;;;;;;1.10;63.53;101279.47;5068319;28;20036;-66
2024/01/12 02:07:42;;;;;;;5.72;2.53;;;;;;;1.16;63.91;101276.63;5071402;28;20608;-66
2024/01/12 02:10:09;;;;;;;4.55;1.75;;;;;;;1.03;65.19;101267.78;5067336;28;20884;-66
2024/01/12 02:12:35;;;;;;;5.00;2.05;;;;;;;1.08;64.48;101265.84;5069460;28;20037;-66
2024/01/12 02:15:01;;;;;;;4.32;1.23;;;;;;;1.10;64.48;101268.34;5068059;28;20040;-66
2024/01/12 02:17:27;;;;;;;10.30;1.98;;;;;;;1.06;65.59;101259.94;5069901;28;20040;-66
2024/01/12 02:19:59;;;;;;;3.83;1.42;;;;;;;1.00;65.46;101257.63;5070365;28;20409;-66
2024/01/12 02:22:26;;;;;;;4.22;1.77;;;;;;;1.04;65.53;101256.63;5068381;28;20465;-65
2024/01/12 02:24:52;;;;;;;5.63;2.33;;;;;;;1.10;65.23;101263.22;5072274;28;20470;-65
2024/01/12 02:27:17;;;;;;;5.53;1.52;;;;;;;1.09;64.00;101256.44;5071425;28;20031;-66
2024/01/12 02:29:43;;;;;;;6.85;2.08;;;;;;;1.04;64.48;101253.22;5070147;28;20474;-65
2024/01/12 02:32:08;;;;;;;3.50;1.33;;;;;;;1.05;63.91;101253.16;5071575;28;20028;-66
2024/01/12 02:34:34;;;;;;;3.95;1.67;;;;;;;1.11;64.06;101254.63;5066863;28;20410;-65
2024/01/12 02:36:59;;;;;;;4.97;1.25;;;;;;;1.07;65.05;101259.06;5072117;28;20046;-66
2024/01/12 02:39:25;;;;;;;7.07;1.95;;;;;;;1.08;64.74;101254.75;5071786;28;20111;-66
2024/01/12 02:41:50;;;;;;;6.38;1.45;;;;;;;1.06;64.53;101257.38;5067968;28;20024;-66
2024/01/12 02:44:16;;;;;;;5.55;1.88;;;;;;;1.03;64.16;101256.69;5070353;28;20547;-66
2024/01/12 02:46:41;;;;;;;6.18;1.27;;;;;;;1.04;64.45;101248.09;5068408;28;20035;-66
2024/01/12 02:49:08;;;;;;;6.88;2.08;;;;;;;1.02;65.42;101245.59;5071413;28;20532;-65
2024/01/12 02:51:34;;;;;;;10.45;1.63;;;;;;;0.95;64.74;101245.00;5067142;28;20040;-65
2024/01/12 02:53:59;;;;;;;6.75;1.67;;;;;;;0.88;66.05;101250.47;5069523;28;20478;-65
2024/01/12 02:56:25;;;;;;;5.53;1.40;;;;;;;0.94;64.67;101251.06;5067704;28;20039;-65
2024/01/12 02:58:51;;;;;;;8.32;1.75;;;;;;;0.94;65.37;101255.34;5067247;28;20037;-66
2024/01/12 03:01:19;;;;;;;4.97;1.40;;;;;;;0.84;66.28;101248.94;5070852;28;20044;-66
2024/01/12 03:03:45;;;;;;;4.70;1.90;;;;;;;0.78;67.95;101255.16;5071271;28;20040;-66
2024/01/12 03:06:10;;;;;;;9.45;1.60;;;;;;;0.77;65.64;101247.50;5068110;28;20106;-66
2024/01/12 03:08:36;;;;;;;5.55;1.30;;;;;;;0.84;65.48;101251.50;5069253;28;20063;-66
2024/01/12 03:11:01;;;;;;;8.10;1.83;;;;;;;0.78;65.92;101252.59;5073749;28;20119;-66
2024/01/12 03:13:27;;;;;;;5.45;2.03;;;;;;;0.83;65.28;101254.97;5071489;28;20048;-65
2024/01/12 03:15:53;;;;;;;5.53;1.70;;;;;;;0.80;65.60;101255.91;5068344;28;20036;-65
2024/01/12 03:18:19;;;;;;;8.40;1.92;;;;;;;0.75;65.56;101262.97;5071141;28;20042;-65
2024/01/12 03:20:44;;;;;;;6.32;1.73;;;;;;;0.69;67.52;101259.81;5066612;28;20040;-65
2024/01/12 03:23:10;;;;;;;4.65;1.60;;;;;;;0.59;66.49;101267.88;5069608;28;20448;-66
2024/01/12 03:25:35;;;;;;;5.20;1.30;;;;;;;0.63;67.05;101273.72;5067207;28;20031;-66
2024/01/12 03:28:01;;;;;;;3.28;1.08;;;;;;;0.70;66.59;101264.88;5067117;28;20028;-66
2024/01/12 03:30:26;;;;;;;5.93;1.42;;;;;;;0.71;67.31;101261.44;5066522;28;20043;-65
2024/01/12 03:32:52;;;;;;;6.85;1.30;;;;;;;0.68;66.48;101256.41;5066261;28;20024;-65
2024/01/12 03:35:17;;;;;;;6.35;1.50;;;;;;;0.74;66.34;101256.16;5068477;28;20048;-65
2024/01/12 03:37:42;;;;;;;3.63;1.08;;;;;;;0.78;65.87;101262.00;5068436;28;20023;-65
2024/01/12 03:40:09;;;;;;;6.13;2.05;;;;;;;0.69;66.37;101257.25;5070893;28;20059;-65
2024/01/12 03:42:34;;;;;;;5.10;1.30;;;;;;;0.59;67.94;101261.91;5065510;28;20473;-65
2024/01/12 03:45:00;;;;;;;5.80;1.30;;;;;;;0.55;68.41;101256.06;5069766;28;20040;-65
2024/01/12 03:47:25;;;;;;;3.40;0.93;;;;;;;0.56;67.66;101262.03;5069337;28;20017;-65
2024/01/12 03:49:50;;;;;;;5.13;1.40;;;;;;;0.59;66.06;101254.22;5068731;28;20033;-65
2024/01/12 03:52:16;;;;;;;4.15;1.13;;;;;;;0.65;66.04;101254.81;5071233;28;20603;-65
2024/01/12 03:54:42;;;;;;;3.45;1.27;;;;;;;0.71;65.46;101248.59;5070162;28;20093;-65
2024/01/12 03:57:07;;;;;;;9.75;1.60;;;;;;;0.71;65.79;101253.72;5071420;28;20381;-65
2024/01/12 03:59:32;;;;;;;5.60;1.45;;;;;;;0.64;66.71;101260.00;5066891;28;20389;-65
2024/01/12 04:01:58;;;;;;;5.28;2.10;;;;;;;0.59;66.42;101254.22;5074695;28;20028;-65
2024/01/12 04:04:23;;;;;;;6.45;1.80;;;;;;;0.59;66.52;101251.66;5069781;28;20043;-66
2024/01/12 04:06:49;;;;;;;4.63;1.17;;;;;;;0.55;66.66;101262.94;5072702;28;20036;-65
2024/01/12 04:09:15;;;;;;;9.32;1.42;;;;;;;0.58;66.93;101258.50;5073415;28;20040;-65
2024/01/12 04:11:40;;;;;;;4.68;1.45;;;;;;;0.69;65.89;101260.66;5069136;28;20041;-66
2024/01/12 04:14:06;;;;;;;3.03;1.00;;;;;;;0.70;65.95;101246.94;5071292;28;20115;-65
2024/01/12 04:16:31;;;;;;;6.28;1.63;;;;;;;0.63;66.71;101253.19;5070636;28;20182;-66
2024/01/12 04:18:57;;;;;;;5.18;1.20;;;;;;;0.65;65.97;101252.25;5073320;28;20077;-66
2024/01/12 04:21:22;;;;;;;8.30;1.50;;;;;;;0.68;66.81;101256.41;5071529;28;20454;-66
2024/01/12 04:23:48;;;;;;;4.60;1.35;;;;;;;0.73;65.77;101259.63;5070245;28;20028;-66
2024/01/12 04:26:13;;;;;;;8.25;1.75;;;;;;;0.72;65.78;101247.69;5070528;28;20060;-66
2024/01/12 04:28:39;;;;;;;6.53;1.95;;;;;;;0.74;66.66;101250.22;5070092;28;20382;-67
2024/01/12 04:31:05;;;;;;;3.95;0.98;;;;;;;0.75;65.93;101257.00;5074259;28;20032;-66
2024/01/12 04:33:31;;;;;;;10.57;1.25;;;;;;;0.68;67.22;101256.41;5073194;28;20048;-66
2024/01/12 04:35:58;;;;;;;3.75;1.02;;;;;;;0.64;66.37;101260.00;5072420;28;20488;-67
2024/01/12 04:38:25;;;;;;;4.55;1.67;;;;;;;0.65;66.34;101256.53;5070716;28;20108;-66
2024/01/12 04:40:51;;;;;;;6.68;1.65;;;;;;;0.64;67.33;101270.25;5069530;28;20035;-67
2024/01/12 04:43:18;;;;;;;3.83;1.38;;;;;;;0.50;68.21;101268.25;5073508;28;20051;-67
2024/01/12 04:45:43;;;;;;;5.68;1.50;;;;;;;0.50;67.55;101260.53;5071666;28;20639;-66
2024/01/12 04:48:08;;;;;;;8.90;1.88;;;;;;;0.46;68.23;101266.72;5072596;28;20441;-67
2024/01/12 04:50:34;;;;;;;8.90;1.83;;;;;;;0.44;69.08;101265.09;5069478;28;20021;-66
2024/01/12 04:52:59;;;;;;;5.05;0.95;;;;;;;0.41;67.79;101271.19;5070909;28;20032;-66
2024/01/12 04:55:25;;;;;;;2.42;1.17;;;;;;;0.47;67.94;101267.56;5070493;28;20042;-66
2024/01/12 04:57:50;;;;;;;4.07;1.17;;;;;;;0.45;68.28;101275.31;5069160;28;20028;-66
2024/01/12 05:00:16;;;;;;;10.32;1.10;;;;;;;0.48;66.93;101276.88;5068902;28;20437;-67
2024/01/12 05:02:42;;;;;;;5.63;1.33;;;;;;;0.55;66.88;101280.88;5068935;28;20082;-66
2024/01/12 05:05:08;;;;;;;7.63;1.60;;;;;;;0.57;67.39;101286.78;5074055;28;20043;-66
2024/01/12 05:07:34;;;;;;;4.75;1.23;;;;;;;0.57;66.55;101289.34;5069790;28;20029;-66
2024/01/12 05:09:59;;;;;;;4.65;1.42;;;;;;;0.51;67.12;101287.84;5069584;28;20433;-66
2024/01/12 05:12:25;;;;;;;5.15;1.15;;;;;;;0.45;67.59;101284.72;5066935;28;20040;-66
2024/01/12 05:14:51;;;;;;;5.20;1.48;;;;;;;0.41;67.47;101286.56;5073262;28;20060;-66
2024/01/12 05:17:16;;;;;;;6.10;1.20;;;;;;;0.39;68.06;101282.41;5070094;28;20033;-66
2024/01/12 05:19:42;;;;;;;4.10;1.35;;;;;;;0.40;68.33;101287.47;5068221;28;20107;-66
2024/01/12 05:22:07;;;;;;;4.80;1.05;;;;;;;0.33;69.10;101294.56;5069297;28;20021;-66
2024/01/12 05:24:33;;;;;;;4.60;1.15;;;;;;;0.41;67.96;101288.31;5066934;28;20040;-66
2024/01/12 05:26:59;;;;;;;3.70;1.20;;;;;;;0.39;67.73;101288.38;5072781;28;20028;-67
2024/01/12 05:29:24;;;;;;;6.93;1.70;;;;;;;0.35;68.28;101291.09;5071406;28;20079;-66
2024/01/12 05:31:50;;;;;;;2.53;1.27;;;;;;;0.29;69.14;101287.88;5070869;28;20064;-67
2024/01/12 05:34:15;;;;;;;5.78;1.35;;;;;;;0.27;69.40;101297.34;5070269;28;20139;-66
2024/01/12 05:36:41;;;;;;;4.25;1.05;;;;;;;0.26;68.29;101290.56;5070541;28;20093;-66
2024/01/12 05:39:06;;;;;;;3.83;1.40;;;;;;;0.27;68.46;101294.78;5068958;28;20484;-66
2024/01/12 05:41:32;;;;;;;3.83;1.33;;;;;;;0.25;68.57;101290.63;5066483;28;20035;-66
2024/01/12 05:43:58;;;;;;;3.95;1.25;;;;;;;0.19;68.99;101294.25;5070120;28;20055;-66
2024/01/12 05:46:23;;;;;;;3.78;1.45;;;;;;;0.32;68.68;101299.75;5069170;28;20328;-66
2024/01/12 05:48:49;;;;;;;7.70;1.38;;;;;;;0.37;67.28;101300.41;5071222;28;20038;-66
2024/01/12 05:51:15;;;;;;;5.32;1.50;;;;;;;0.46;67.59;101301.78;5068309;28;20032;-66
2024/01/12 05:53:40;;;;;;;4.43;0.90;;;;;;;0.36;68.60;101300.47;5071986;28;20029;-66
2024/01/12 05:56:06;;;;;;;3.80;1.25;;;;;;;0.38;68.22;101303.81;5068655;28;20091;-66
2024/01/12 05:58:31;;;;;;;6.38;1.05;;;;;;;0.46;67.94;101302.63;5068529;28;20032;-66
2024/01/12 06:00:57;;;;;;;5.65;1.75;;;;;;;0.38;67.48;101304.63;5068898;28;20108;-66
2024/01/12 06:03:23;;;;;;;7.57;1.70;;;;;;;0.44;67.76;101301.00;5068401;28;20036;-66
2024/01/12 06:05:50;;;;;;;5.22;1.27;;;;;;;0.43;68.61;101307.03;5068179;28;20035;-66
2024/01/12 06:08:16;;;;;;;4.88;1.25;;;;;;;0.46;68.12;101306.91;5072102;28;20519;-66
2024/01/12 06:10:42;;;;;;;5.70;1.30;;;;;;;0.46;67.63;101312.88;5069090;28;20121;-66
2024/01/12 06:13:08;;;;;;;3.78;1.10;;;;;;;0.42;67.45;101313.88;5067749;28;20040;-67
2024/01/12 06:15:34;;;;;;;4.97;1.13;;;;;;;0.49;67.41;101314.44;5068737;28;20119;-67
2024/01/12 06:18:00;;;;;;;3.63;1.38;;;;;;;0.50;67.28;101324.66;5066803;28;20109;-67
2024/01/12 06:20:26;;;;;;;6.53;1.27;;;;;;;0.46;67.94;101322.28;5070109;28;20025;-66
2024/01/12 06:22:51;;;;;;;7.47;2.20;;;;;;;0.55;66.81;101324.47;5066085;28;20521;-67
2024/01/12 06:25:17;;;;;;;4.75;1.23;;;;;;;0.52;67.93;101322.03;5069112;28;20477;-67
2024/01/12 06:27:42;;;;;;;5.00;1.20;;;;;;;0.49;68.74;101325.53;5069959;28;20300;-66
2024/01/12 06:30:08;;;;;;;6.53;1.35;;;;;;;0.51;68.12;101321.19;5067628;28;20044;-67
2024/01/12 06:32:36;;;;;;;5.88;1.40;;;;;;;0.50;68.20;101323.81;5066988;28;20070;-66
2024/01/12 06:35:02;;;;;;;3.47;1.30;;;;;;;0.47;67.98;101329.09;5067185;28;20043;-67
2024/01/12 06:37:27;;;;;;;10.05;1.42;;;;;;;0.46;67.45;101329.97;5067728;28;20036;-67
2024/01/12 06:39:55;;;;;;;7.07;1.23;;;;;;;0.61;67.11;101335.34;5068522;28;20035;-66
2024/01/12 06:42:20;;;;;;;3.50;1.52;;;;;;;0.55;68.25;101338.13;5067327;28;20105;-66
2024/01/12 06:44:46;;;;;;;3.58;1.23;;;;;;;0.50;67.38;101337.47;5070793;28;20102;-66
2024/01/12 06:47:12;;;;;;;3.75;1.08;;;;;;;0.46;69.12;101346.19;5069589;28;20036;-66
2024/01/12 06:49:42;;;;;;;4.80;1.33;;;;;;;0.46;69.06;101347.94;5067136;28;20036;-66
2024/01/12 06:52:08;;;;;;;8.27;1.98;;;;;;;0.46;69.04;101351.34;5066057;28;20032;-66
2024/01/12 06:54:34;;;;;;;6.15;1.40;;;;;;;0.41;69.28;101354.97;5067761;28;20124;-66
2024/01/12 06:56:59;;;;;;;6.65;1.17;;;;;;;0.45;68.10;101364.22;5067928;28;20509;-66
2024/01/12 06:59:25;;;;;;;7.07;1.15;;;;;;;0.49;69.99;101366.56;5068092;28;20563;-66
2024/01/12 07:01:50;;;;;;;3.60;1.10;;;;;;;0.55;67.93;101375.75;5068086;28;20036;-67
2024/01/12 07:04:16;;;;;;;4.47;1.35;;;;;;;0.63;67.32;101376.31;5066752;28;20040;-66
2024/01/12 07:06:41;;;;;;;2.50;0.88;;;;;;;0.72;67.24;101370.81;5067742;28;20067;-66
2024/01/12 07:09:11;;;;;;;4.68;1.33;;;;;;;0.73;67.46;101364.81;5068005;28;20037;-66
2024/01/12 07:11:42;;;;;;;4.93;1.00;;;;;;;0.67;67.92;101370.16;5068165;28;20041;-66
2024/01/12 07:14:13;;;;;;;4.82;1.27;;;;;;;0.73;66.87;101371.66;5066924;28;20353;-65
2024/01/12 07:16:38;;;;;;;2.15;0.75;;;;;;;0.79;66.71;101362.00;5068721;28;20113;-66
2024/01/12 07:19:04;;;;;;;4.35;1.38;;;;;;;0.76;68.64;101358.72;5068006;28;20024;-66
2024/01/12 07:21:29;;;;;;;5.13;1.27;;;;;;;0.78;67.64;101365.47;5066697;28;20512;-65
2024/01/12 07:23:55;;;;;;;8.43;1.20;;;;;;;0.87;67.24;101372.78;5069118;28;20028;-66
2024/01/12 07:26:20;;;;;;;8.30;1.52;;;;;;;0.82;69.03;101376.44;5068615;28;20433;-66
2024/01/12 07:28:46;;;;;;;3.42;1.00;;;;;;;0.69;68.40;101378.63;5068561;28;20052;-66
2024/01/12 07:31:11;;;;;;;6.57;1.52;;;;;;;0.72;69.22;101380.25;5069024;28;20485;-66
2024/01/12 07:33:37;;;;;;;5.30;1.30;;;;;;;0.80;67.50;101383.34;5066537;28;20169;-66
2024/01/12 07:36:02;;;;;;;3.88;1.17;;;;;;;0.94;67.23;101387.06;5072514;28;20033;-65
2024/01/12 07:38:28;;;;;;;5.28;1.58;;;;;;;0.99;67.29;101394.53;5072413;28;20426;-66
2024/01/12 07:40:53;;;;;;;6.15;1.35;;;;;;;0.99;67.05;101395.38;5072819;28;20028;-66
2024/01/12 07:43:19;;;;;;;10.45;3.17;;;;;;;1.05;66.30;101399.44;5071549;28;20382;-66
2024/01/12 07:45:45;;;;;;;7.60;1.77;;;;;;;1.06;67.19;101407.97;5070060;28;20085;-65
2024/01/12 07:48:10;;;;;;;4.40;2.03;;;;;;;1.03;67.28;101400.38;5071839;28;20037;-66
2024/01/12 07:50:36;;;;;;;7.28;2.35;;;;;;;1.03;67.33;101397.81;5069709;28;20093;-66
2024/01/12 07:53:02;;;;;;;5.45;1.92;;;;;;;1.06;68.01;101400.28;5071224;28;20024;-66
2024/01/12 07:55:27;;;;;;;13.48;2.67;;;;;;;1.03;67.77;101396.09;5071996;28;20044;-66
2024/01/12 07:57:53;;;;;;;5.18;2.35;;;;;;;1.02;69.72;101399.56;5072175;28;20577;-66
2024/01/12 08:00:19;;;;;;;5.53;1.55;;;;;;;1.09;66.66;101406.13;5071855;28;20037;-66
2024/01/12 08:02:44;;;;;;;3.30;1.60;;;;;;;1.16;67.85;101409.28;5072043;28;20166;-65
2024/01/12 08:05:10;;;;;;;7.35;2.08;;;;;;;1.21;67.46;101409.94;5072359;28;20036;-66
2024/01/12 08:07:37;;;;;;;6.18;2.05;;;;;;;1.32;66.57;101413.75;5072298;28;20028;-66
2024/01/12 08:10:03;;;;;;;7.43;2.38;;;;;;;1.47;66.07;101417.41;5070106;28;20507;-66
2024/01/12 08:12:28;;;;;;;4.53;1.98;;;;;;;1.58;66.59;101424.66;5070159;28;20075;-66
2024/01/12 08:14:54;;;;;;;8.43;2.65;;;;;;;1.57;66.46;101428.97;5070136;28;20048;-66
2024/01/12 08:17:19;;;;;;;8.15;2.60;;;;;;;1.58;66.76;101428.06;5072524;28;20376;-66
2024/01/12 08:19:46;;;;;;;7.50;3.00;;;;;;;1.60;66.51;101428.84;5070988;28;20028;-66
2024/01/12 08:22:12;;;;;;;7.13;2.50;;;;;;;1.69;66.31;101431.91;5071218;28;20134;-66
2024/01/12 08:24:38;;;;;;;6.07;2.03;;;;;;;1.73;67.76;101425.75;5071657;28;20466;-66
2024/01/12 08:27:04;;;;;;;12.77;2.75;;;;;;;1.77;66.55;101435.00;5070542;28;20099;-65
2024/01/12 08:29:29;;;;;;;9.82;3.33;;;;;;;1.77;66.95;101433.28;5070342;28;20036;-65
2024/01/12 08:31:54;;;;;;;5.32;1.80;;;;;;;1.80;65.83;101434.88;5068839;28;20041;-65
2024/01/12 08:34:21;;;;;;;7.43;1.92;;;;;;;1.92;66.77;101435.16;5071535;28;20053;-66
2024/01/12 08:36:47;;;;;;;5.90;2.25;;;;;;;1.99;67.13;101436.56;5071534;28;20478;-66
2024/01/12 08:39:12;;;;;;;5.50;1.50;;;;;;;2.09;64.42;101443.91;5071851;28;20090;-65
2024/01/12 08:41:37;;;;;;;8.00;1.98;;;;;;;2.06;65.52;101441.47;5065353;28;20028;-65
2024/01/12 08:44:03;;;;;;;4.78;1.52;;;;;;;2.11;66.15;101447.25;5085629;28;20032;-65
2024/01/12 08:46:28;;;;;;;4.53;1.30;;;;;;;2.20;65.04;101457.13;5069249;28;20493;-65
2024/01/12 08:48:54;;;;;;;7.78;1.45;;;;;;;2.39;64.38;101454.56;5070851;28;20493;-64
2024/01/12 08:51:20;;;;;;;4.78;1.48;;;;;;;2.37;66.43;101464.06;5071491;28;20478;-66
2024/01/12 08:53:46;;;;;;;4.95;1.35;;;;;;;2.47;64.69;101467.91;5069528;28;20036;-65
2024/01/12 08:56:12;;;;;;;10.10;1.98;;;;;;;2.49;63.91;101460.97;5070860;28;20111;-64
2024/01/12 08:58:38;;;;;;;7.20;1.48;;;;;;;2.49;64.11;101464.38;5069286;28;20024;-65
2024/01/12 09:01:04;;;;;;;12.45;1.65;;;;;;;2.53;64.23;101468.47;5068016;28;20389;-64
2024/01/12 09:03:30;;;;;;;9.43;2.10;;;;;;;2.73;63.42;101467.59;5069819;28;20060;-65
2024/01/12 09:05:55;;;;;;;5.07;1.52;;;;;;;2.71;65.42;101464.25;5069497;28;20184;-65
2024/01/12 09:08:20;;;;;;;3.60;1.70;;;;;;;2.70;64.76;101470.31;5071566;28;20028;-65
2024/01/12 09:10:46;;;;;;;7.13;2.38;;;;;;;2.89;62.82;101480.56;5071303;28;20035;-64
2024/01/12 09:13:11;;;;;;;4.45;1.77;;;;;;;2.93;63.60;101479.53;5069701;28;20028;-65
2024/01/12 09:15:37;;;;;;;8.23;1.92;;;;;;;3.07;65.97;101473.75;5070340;28;20494;-65
2024/01/12 09:18:03;;;;;;;4.38;1.85;;;;;;;3.06;65.61;101487.53;5070253;28;20036;-64
2024/01/12 09:20:29;;;;;;;6.65;1.80;;;;;;;3.27;63.79;101489.94;5067334;28;20390;-65
2024/01/12 09:22:54;;;;;;;4.50;1.55;;;;;;;3.36;64.13;101486.06;5070761;28;20039;-65
2024/01/12 09:25:20;;;;;;;7.28;2.58;;;;;;;3.49;61.79;101487.13;5070680;28;20470;-65
2024/01/12 09:27:45;;;;;;;9.57;2.35;;;;;;;3.46;63.87;101482.13;5070494;28;20060;-66
2024/01/12 09:30:11;;;;;;;8.65;3.15;;;;;;;3.57;61.68;101489.34;5068571;28;20041;-66
2024/01/12 09:32:36;;;;;;;7.18;2.50;;;;;;;3.71;64.52;101493.84;5070215;28;20032;-64
2024/01/12 09:35:02;;;;;;;6.45;2.08;;;;;;;3.78;60.26;101490.03;5070794;28;20037;-64
2024/01/12 09:37:27;;;;;;;6.40;2.38;;;;;;;3.79;65.03;101491.69;5069035;28;20093;-64
2024/01/12 09:39:53;;;;;;;4.10;1.75;;;;;;;3.80;64.24;101490.78;5069596;28;20032;-64
2024/01/12 09:42:23;;;;;;;6.32;1.58;;;;;;;3.79;66.82;101491.69;5071130;28;20033;-64
2024/01/12 09:44:51;;;;;;;4.70;2.00;;;;;;;3.82;63.75;101499.25;5070054;28;20028;-64
2024/01/12 09:47:17;;;;;;;5.43;1.42;;;;;;;4.06;62.78;101500.63;5070703;28;20410;-64
2024/01/12 09:49:43;;;;;;;4.43;1.48;;;;;;;4.20;61.50;101500.78;5069999;28;20036;-64
2024/01/12 09:52:09;;;;;;;4.15;1.50;;;;;;;4.23;63.29;101503.19;5068826;28;20044;-64
2024/01/12 09:54:35;;;;;;;4.40;1.40;;;;;;;4.21;65.59;101505.03;5070133;28;20123;-64
2024/01/12 09:57:03;;;;;;;4.03;1.20;;;;;;;4.34;62.28;101507.78;5070570;28;20025;-65
2024/01/12 09:59:28;;;;;;;5.00;1.58;;;;;;;4.51;58.96;101500.00;5068925;28;20033;-65
2024/01/12 10:01:56;;;;;;;3.25;1.00;;;;;;;4.47;64.98;101507.97;5068269;28;20048;-64
2024/01/12 10:04:22;;;;;;;4.97;1.38;;;;;;;4.33;66.42;101512.09;5070447;28;20064;-65
2024/01/12 10:06:47;;;;;;;3.97;1.17;;;;;;;4.41;65.36;101508.28;5069304;28;20066;-64
2024/01/12 10:09:13;;;;;;;11.52;2.35;;;;;;;4.37;66.03;101506.78;5070594;28;20040;-64
2024/01/12 10:11:38;;;;;;;4.13;0.90;;;;;;;4.42;64.89;101509.97;5066583;28;20043;-64
2024/01/12 10:14:04;;;;;;;8.40;2.25;;;;;;;4.60;62.18;101509.00;5065349;28;20028;-64
2024/01/12 10:16:29;;;;;;;7.80;2.42;;;;;;;4.62;66.11;101507.19;5064378;28;20035;-65
2024/01/12 10:18:59;;;;;;;6.82;2.00;;;;;;;4.44;65.61;101510.72;5063529;28;20094;-64
2024/01/12 10:21:25;;;;;;;2.90;1.20;;;;;;;4.49;65.50;101506.16;5065729;28;20470;-64
2024/01/12 10:24:01;;;;;;;9.45;2.70;;;;;;;4.51;63.25;101504.31;5066439;28;20032;-65
2024/01/12 10:26:26;;;;;;;8.68;1.90;;;;;;;4.63;63.77;101507.09;5058090;28;20505;-64
2024/01/12 10:28:52;;;;;;;4.10;1.13;;;;;;;4.77;64.17;101506.34;5069452;28;20119;-65
2024/01/12 10:31:18;;;;;;;3.22;1.38;;;;;;;4.81;63.29;101497.53;5070064;28;20040;-65
2024/01/12 10:33:45;;;;;;;4.78;1.75;;;;;;;4.90;62.86;101498.78;5064839;28;23917;-64
2024/01/12 10:36:18;;;;;;;4.95;1.35;;;;;;;4.82;64.48;101496.59;5069669;28;20048;-64
2024/01/12 10:38:45;;;;;;;4.45;1.08;;;;;;;4.89;64.39;101490.19;5084118;28;20040;-64
2024/01/12 10:41:11;;;;;;;4.00;1.55;;;;;;;4.86;64.86;101498.13;5069085;28;20124;-64
2024/01/12 10:43:38;;;;;;;4.78;1.63;;;;;;;4.86;65.48;101489.53;5067197;28;20020;-64
2024/01/12 10:46:26;;;;;;;6.35;2.45;;;;;;;4.77;64.53;101483.09;5067824;28;20035;-65
2024/01/12 10:49:06;;;;;;;3.55;1.67;;;;;;;4.81;66.36;101489.78;5068101;28;20494;-64
2024/01/12 10:51:36;;;;;;;6.32;2.08;;;;;;;4.82;66.72;101486.28;5063925;28;20444;-64
2024/01/12 10:54:08;;;;;;;6.57;2.00;;;;;;;4.90;64.41;101491.03;5065647;28;20036;-64
2024/01/12 10:56:35;;;;;;;6.53;2.05;;;;;;;5.02;62.93;101486.97;5068279;28;20033;-64
2024/01/12 10:59:03;;;;;;;2.17;0.73;;;;;;;5.25;62.35;101496.84;5067622;28;20453;-64
2024/01/12 11:01:29;;;;;;;3.55;0.90;;;;;;;5.22;61.36;101489.25;5067341;28;20082;-64
2024/01/12 11:03:55;;;;;;;4.43;1.55;;;;;;;5.36;62.21;101488.50;5069148;28;20492;-65
2024/01/12 11:06:22;;;;;;;4.00;1.50;;;;;;;5.31;63.86;101481.00;5069368;28;20025;-64
2024/01/12 11:08:51;;;;;;;10.20;3.65;;;;;;;5.11;64.93;101471.78;5068308;28;20064;-64
2024/01/12 11:11:20;;;;;;;4.70;1.63;;;;;;;5.18;61.58;101480.03;5069439;28;20029;-64
2024/01/12 11:13:47;;;;;;;6.15;1.55;;;;;;;5.31;61.29;101489.56;5050363;28;20036;-64
2024/01/12 11:16:12;;;;;;;3.35;1.27;;;;;;;5.34;63.56;101470.47;5069203;28;20044;-64
2024/01/12 11:18:38;;;;;;;4.22;1.00;;;;;;;5.28;64.54;101473.41;5069036;28;20470;-65
2024/01/12 11:21:04;;;;;;;6.00;1.42;;;;;;;5.08;66.33;101469.38;5068733;28;20040;-65
2024/01/12 11:23:39;;;;;;;4.28;1.23;;;;;;;4.98;66.87;101478.53;5068254;28;20040;-64
2024/01/12 11:26:04;;;;;;;4.40;1.65;;;;;;;4.88;67.51;101467.88;5069145;28;20036;-64
2024/01/12 11:28:37;;;;;;;8.57;2.60;;;;;;;4.94;67.07;101467.53;5068207;28;20508;-64